createdAt,value
2024-01-21T00:00:22.733Z,101710.30
2024-01-21T00:02:50.282Z,101711.80
2024-01-21T00:05:17.141Z,101709.95
2024-01-21T00:07:43.804Z,101707.24
2024-01-21T00:10:13.417Z,101708.83
2024-01-21T00:12:40.403Z,101702.66
2024-01-21T00:15:07.848Z,101700.33
2024-01-21T00:17:34.475Z,101699.94
2024-01-21T00:20:01.056Z,101696.75
2024-01-21T00:22:27.564Z,101688.05
2024-01-21T00:24:54.200Z,101679.45
2024-01-21T00:27:20.847Z,101673.80
2024-01-21T00:29:47.451Z,101676.77
2024-01-21T00:32:14.196Z,101682.48
2024-01-21T00:34:41.205Z,101682.96
2024-01-21T00:37:07.721Z,101680.85
2024-01-21T00:39:34.731Z,101675.24
2024-01-21T00:42:08.111Z,101678.96
2024-01-21T00:44:37.405Z,101676.27
2024-01-21T00:47:05.156Z,101672.23
2024-01-21T00:49:33.071Z,101668.36
2024-01-21T00:52:00.212Z,101666.65
2024-01-21T00:54:26.819Z,101671.60
2024-01-21T00:56:53.661Z,101671.13
2024-01-21T00:59:20.456Z,101679.39
2024-01-21T01:01:47.110Z,101681.96
2024-01-21T01:04:14.245Z,101683.02
2024-01-21T01:06:41.873Z,101683.17
2024-01-21T01:09:09.172Z,101687.16
2024-01-21T01:11:36.909Z,101686.63
2024-01-21T01:14:04.119Z,101679.78
2024-01-21T01:16:30.710Z,101674.62
2024-01-21T01:18:58.874Z,101673.40
2024-01-21T01:21:25.733Z,101672.87
2024-01-21T01:23:52.304Z,101671.13
2024-01-21T01:26:20.095Z,101664.88
2024-01-21T01:28:46.768Z,101661.83
2024-01-21T01:31:20.533Z,101659.36
2024-01-21T01:33:47.901Z,101658.66
2024-01-21T01:36:15.558Z,101658.22
2024-01-21T01:38:43.976Z,101652.36
2024-01-21T01:41:11.134Z,101650.51
2024-01-21T01:43:38.105Z,101650.33
2024-01-21T01:46:07.508Z,101646.35
2024-01-21T01:48:34.795Z,101649.70
2024-01-21T01:51:05.517Z,101646.59
2024-01-21T01:53:34.394Z,101636.63
2024-01-21T01:56:01.698Z,101628.30
2024-01-21T01:58:29.224Z,101625.27
2024-01-21T02:00:57.644Z,101621.89
2024-01-21T02:03:25.751Z,101618.50
2024-01-21T02:05:52.978Z,101624.10
2024-01-21T02:08:19.903Z,101621.95
2024-01-21T02:10:47.365Z,101622.95
2024-01-21T02:13:14.143Z,101622.48
2024-01-21T02:15:40.849Z,101625.23
2024-01-21T02:18:07.692Z,101626.49
2024-01-21T02:20:36.122Z,101619.39
2024-01-21T02:23:05.349Z,101609.36
2024-01-21T02:25:31.879Z,101607.74
2024-01-21T02:27:58.535Z,101609.56
2024-01-21T02:30:25.175Z,101605.87
2024-01-21T02:32:51.888Z,101604.77
2024-01-21T02:35:18.457Z,101605.39
2024-01-21T02:37:45.007Z,101603.20
2024-01-21T02:40:11.877Z,101591.75
2024-01-21T02:42:38.641Z,101585.72
2024-01-21T02:45:06.008Z,101579.80
2024-01-21T02:47:32.630Z,101580.33
2024-01-21T02:49:59.565Z,101577.70
2024-01-21T02:52:26.463Z,101570.89
2024-01-21T02:54:53.056Z,101568.02
2024-01-21T02:57:19.959Z,101563.00
2024-01-21T02:59:46.516Z,101564.09
2024-01-21T03:02:13.060Z,101569.02
2024-01-21T03:04:40.315Z,101575.77
2024-01-21T03:07:06.852Z,101574.66
2024-01-21T03:09:33.465Z,101572.77
2024-01-21T03:12:00.303Z,101573.85
2024-01-21T03:14:26.801Z,101570.37
2024-01-21T03:16:54.923Z,101569.12
2024-01-21T03:19:21.662Z,101558.91
2024-01-21T03:21:48.374Z,101553.23
2024-01-21T03:24:15.279Z,101551.72
2024-01-21T03:26:42.317Z,101557.16
2024-01-21T03:29:09.055Z,101551.93
2024-01-21T03:31:35.656Z,101552.25
2024-01-21T03:34:04.903Z,101550.64
2024-01-21T03:39:22.954Z,101539.31
2024-01-21T03:41:50.247Z,101536.91
2024-01-21T03:44:16.851Z,101532.64
2024-01-21T03:46:43.424Z,101536.75
2024-01-21T03:49:10.280Z,101535.58
2024-01-21T03:51:36.896Z,101538.73
2024-01-21T03:54:03.864Z,101538.05
2024-01-21T03:56:32.427Z,101535.27
2024-01-21T03:58:58.912Z,101534.41
2024-01-21T04:01:25.628Z,101533.32
2024-01-21T04:03:52.873Z,101533.07
2024-01-21T04:06:19.664Z,101530.66
2024-01-21T04:08:46.655Z,101531.73
2024-01-21T04:11:13.369Z,101533.66
2024-01-21T04:13:41.220Z,101533.64
2024-01-21T04:16:07.842Z,101527.66
2024-01-21T04:18:34.609Z,101521.10
2024-01-21T04:21:02.882Z,101516.34
2024-01-21T04:23:29.383Z,101519.04
2024-01-21T04:28:23.151Z,101528.52
2024-01-21T04:30:50.027Z,101525.58
2024-01-21T04:33:17.209Z,101524.80
2024-01-21T04:35:44.364Z,101525.30
2024-01-21T04:38:11.520Z,101531.64
2024-01-21T04:40:39.803Z,101530.48
2024-01-21T04:43:06.369Z,101529.30
2024-01-21T04:45:33.429Z,101531.69
2024-01-21T04:48:00.776Z,101532.67
2024-01-21T04:50:27.989Z,101521.17
2024-01-21T04:52:54.459Z,101507.39
2024-01-21T04:55:21.009Z,101506.88
2024-01-21T04:57:47.740Z,101519.98
2024-01-21T05:00:15.529Z,101529.48
2024-01-21T05:02:42.057Z,101540.38
2024-01-21T05:05:09.031Z,101545.08
2024-01-21T05:07:35.600Z,101543.38
2024-01-21T05:10:02.570Z,101552.58
2024-01-21T05:12:29.452Z,101550.81
2024-01-21T05:14:57.378Z,101551.67
2024-01-21T05:17:24.529Z,101557.06
2024-01-21T05:19:51.547Z,101552.48
2024-01-21T05:22:18.648Z,101564.51
2024-01-21T05:24:45.231Z,101566.88
2024-01-21T05:27:12.031Z,101559.07
2024-01-21T05:29:43.070Z,101554.61
2024-01-21T05:32:09.746Z,101551.61
2024-01-21T05:34:36.798Z,101544.74
2024-01-21T05:37:03.569Z,101542.80
2024-01-21T05:39:30.522Z,101538.66
2024-01-21T05:42:15.389Z,101533.89
2024-01-21T05:44:43.088Z,101517.48
2024-01-21T05:47:10.477Z,101518.53
2024-01-21T05:49:37.183Z,101516.69
2024-01-21T05:52:04.793Z,101514.28
2024-01-21T05:54:31.585Z,101519.65
2024-01-21T05:56:58.410Z,101521.95
2024-01-21T05:59:25.259Z,101523.49
2024-01-21T06:01:52.658Z,101521.41
2024-01-21T06:04:19.435Z,101523.42
2024-01-21T06:06:46.351Z,101526.90
2024-01-21T06:09:13.195Z,101525.80
2024-01-21T06:11:41.762Z,101525.83
2024-01-21T06:14:08.859Z,101524.27
2024-01-21T06:16:35.621Z,101523.23
2024-01-21T06:19:03.001Z,101520.36
2024-01-21T06:21:30.263Z,101520.30
2024-01-21T06:23:57.355Z,101527.17
2024-01-21T06:26:24.415Z,101527.37
2024-01-21T06:28:51.645Z,101518.50
2024-01-21T06:31:19.527Z,101519.64
2024-01-21T06:33:46.808Z,101519.84
2024-01-21T06:36:13.526Z,101519.45
2024-01-21T06:38:40.346Z,101520.93
2024-01-21T06:41:06.871Z,101518.85
2024-01-21T06:43:33.851Z,101515.79
2024-01-21T06:46:00.712Z,101511.74
2024-01-21T06:48:28.378Z,101508.33
2024-01-21T06:50:55.356Z,101512.99
2024-01-21T06:53:21.945Z,101525.25
2024-01-21T06:55:48.565Z,101531.58
2024-01-21T06:58:15.231Z,101526.94
2024-01-21T07:00:42.067Z,101520.16
2024-01-21T07:03:09.273Z,101520.62
2024-01-21T07:05:36.115Z,101526.71
2024-01-21T07:08:03.057Z,101521.14
2024-01-21T07:10:29.620Z,101515.86
2024-01-21T07:12:57.463Z,101508.42
2024-01-21T07:15:25.522Z,101509.04
2024-01-21T07:17:52.457Z,101511.17
2024-01-21T07:20:19.485Z,101519.73
2024-01-21T07:22:46.232Z,101520.73
2024-01-21T07:25:15.795Z,101522.58
2024-01-21T07:27:44.295Z,101525.42
2024-01-21T07:30:12.648Z,101534.04
2024-01-21T07:32:41.022Z,101535.00
2024-01-21T07:35:10.393Z,101530.83
2024-01-21T07:37:37.906Z,101517.67
2024-01-21T07:40:06.937Z,101510.19
2024-01-21T07:42:34.258Z,101509.47
2024-01-21T07:45:00.884Z,101528.34
2024-01-21T07:47:28.428Z,101528.98
2024-01-21T07:49:55.107Z,101528.45
2024-01-21T07:52:22.374Z,101530.90
2024-01-21T07:54:49.318Z,101526.17
2024-01-21T07:57:15.891Z,101529.36
2024-01-21T07:59:43.081Z,101531.30
2024-01-21T08:02:10.145Z,101528.19
2024-01-21T08:04:37.582Z,101525.15
2024-01-21T08:07:04.777Z,101513.82
2024-01-21T08:09:32.502Z,101524.33
2024-01-21T08:11:59.154Z,101533.80
2024-01-21T08:14:26.103Z,101541.98
2024-01-21T08:16:53.299Z,101534.78
2024-01-21T08:19:21.890Z,101540.15
2024-01-21T08:21:48.693Z,101545.91
2024-01-21T08:24:15.706Z,101563.73
2024-01-21T08:26:42.842Z,101562.08
2024-01-21T08:29:09.364Z,101565.38
2024-01-21T08:31:43.953Z,101563.11
2024-01-21T08:34:10.974Z,101556.54
2024-01-21T08:36:38.821Z,101565.73
2024-01-21T08:39:06.608Z,101567.23
2024-01-21T08:41:36.002Z,101571.93
2024-01-21T08:44:05.884Z,101572.88
2024-01-21T08:46:32.433Z,101571.15
2024-01-21T08:49:00.149Z,101571.20
2024-01-21T08:51:26.901Z,101574.30
2024-01-21T08:53:58.201Z,101563.42
2024-01-21T08:56:26.866Z,101557.62
2024-01-21T08:58:54.683Z,101553.10
2024-01-21T09:01:22.566Z,101550.84
2024-01-21T09:03:49.967Z,101558.43
2024-01-21T09:06:17.004Z,101554.64
2024-01-21T09:08:44.098Z,101557.92
2024-01-21T09:11:10.826Z,101563.23
2024-01-21T09:13:37.514Z,101564.27
2024-01-21T09:16:04.435Z,101581.41
2024-01-21T09:18:32.522Z,101589.35
2024-01-21T09:21:00.070Z,101584.35
2024-01-21T09:23:27.277Z,101588.23
2024-01-21T09:25:53.933Z,101581.96
2024-01-21T09:28:20.755Z,101562.19
2024-01-21T09:30:47.993Z,101541.86
2024-01-21T09:33:15.103Z,101545.81
2024-01-21T09:35:42.984Z,101549.23
2024-01-21T09:38:12.017Z,101547.79
2024-01-21T09:40:39.179Z,101548.08
2024-01-21T09:43:06.081Z,101548.61
2024-01-21T09:45:35.509Z,101551.21
2024-01-21T09:48:05.089Z,101559.14
2024-01-21T09:50:32.726Z,101578.31
2024-01-21T09:52:59.291Z,101583.05
2024-01-21T09:55:26.250Z,101586.96
2024-01-21T09:57:54.391Z,101607.41
2024-01-21T10:00:21.977Z,101624.77
2024-01-21T10:02:51.235Z,101618.55
2024-01-21T10:05:17.995Z,101635.98
2024-01-21T10:07:45.436Z,101646.69
2024-01-21T10:10:13.925Z,101666.29
2024-01-21T10:12:42.107Z,101653.55
2024-01-21T10:15:13.045Z,101638.35
2024-01-21T10:17:39.672Z,101646.64
2024-01-21T10:20:14.219Z,101634.30
2024-01-21T10:22:42.852Z,101630.95
2024-01-21T10:25:13.291Z,101640.15
2024-01-21T10:27:39.899Z,101627.20
2024-01-21T10:30:09.288Z,101618.13
2024-01-21T10:32:36.085Z,101607.10
2024-01-21T10:35:03.314Z,101627.92
2024-01-21T10:37:32.104Z,101632.70
2024-01-21T10:40:01.261Z,101630.79
2024-01-21T10:42:29.745Z,101624.20
2024-01-21T10:44:57.342Z,101605.75
2024-01-21T10:47:25.895Z,101597.63
2024-01-21T10:49:52.590Z,101593.11
2024-01-21T10:52:21.096Z,101574.98
2024-01-21T10:54:49.079Z,101562.52
2024-01-21T10:57:16.821Z,101551.55
2024-01-21T10:59:45.174Z,101549.55
2024-01-21T11:02:12.169Z,101543.23
2024-01-21T11:04:38.890Z,101534.60
2024-01-21T11:07:09.625Z,101510.05
2024-01-21T11:09:38.232Z,101491.85
2024-01-21T11:12:06.132Z,101496.64
2024-01-21T11:14:37.836Z,101499.17
2024-01-21T11:17:11.503Z,101514.59
2024-01-21T11:19:50.663Z,101506.99
2024-01-21T11:22:21.463Z,101495.41
2024-01-21T11:24:48.214Z,101505.69
2024-01-21T11:27:15.722Z,101505.16
2024-01-21T11:29:42.996Z,101518.84
2024-01-21T11:32:12.287Z,101525.33
2024-01-21T11:34:42.606Z,101514.77
2024-01-21T11:37:15.034Z,101506.48
2024-01-21T11:39:43.422Z,101506.23
2024-01-21T11:42:11.338Z,101499.09
2024-01-21T11:44:39.555Z,101496.70
2024-01-21T11:47:07.706Z,101501.85
2024-01-21T11:49:35.776Z,101510.61
2024-01-21T11:52:07.313Z,101499.27
2024-01-21T11:54:38.361Z,101497.09
2024-01-21T11:57:08.987Z,101480.20
2024-01-21T11:59:36.984Z,101467.79
2024-01-21T12:02:08.880Z,101460.42
2024-01-21T12:04:36.125Z,101461.46
2024-01-21T12:07:04.355Z,101461.30
2024-01-21T12:09:32.292Z,101469.09
2024-01-21T12:11:59.367Z,101467.84
2024-01-21T12:14:26.818Z,101476.70
2024-01-21T12:16:55.306Z,101485.81
2024-01-21T12:19:24.804Z,101495.00
2024-01-21T12:21:52.893Z,101491.15
2024-01-21T12:24:24.048Z,101475.67
2024-01-21T12:26:52.003Z,101475.52
2024-01-21T12:29:21.240Z,101485.59
2024-01-21T12:31:50.462Z,101487.62
2024-01-21T12:34:19.988Z,101470.56
2024-01-21T12:36:48.084Z,101456.86
2024-01-21T12:39:17.517Z,101463.63
2024-01-21T12:41:44.345Z,101452.79
2024-01-21T12:44:11.051Z,101437.09
2024-01-21T12:46:39.386Z,101431.29
2024-01-21T12:49:07.365Z,101415.30
2024-01-21T12:51:36.549Z,101412.55
2024-01-21T12:54:03.635Z,101404.80
2024-01-21T12:56:30.301Z,101417.64
2024-01-21T12:58:57.137Z,101423.34
2024-01-21T13:01:24.694Z,101426.23
2024-01-21T13:03:54.266Z,101421.11
2024-01-21T13:06:22.242Z,101421.08
2024-01-21T13:08:49.933Z,101422.29
2024-01-21T13:11:16.859Z,101425.34
2024-01-21T13:13:43.429Z,101415.89
2024-01-21T13:16:11.105Z,101410.10
2024-01-21T13:18:38.965Z,101410.30
2024-01-21T13:21:08.609Z,101409.92
2024-01-21T13:23:35.778Z,101399.23
2024-01-21T13:26:03.006Z,101401.67
2024-01-21T13:28:39.863Z,101406.27
2024-01-21T13:31:07.036Z,101401.34
2024-01-21T13:33:34.249Z,101395.67
2024-01-21T13:36:01.695Z,101405.73
2024-01-21T13:38:33.921Z,101410.30
2024-01-21T13:41:04.496Z,101408.47
2024-01-21T13:43:32.411Z,101401.00
2024-01-21T13:45:59.382Z,101385.89
2024-01-21T13:48:26.151Z,101384.01
2024-01-21T13:50:53.338Z,101394.45
2024-01-21T13:53:20.112Z,101388.16
2024-01-21T13:55:47.801Z,101375.80
2024-01-21T13:58:18.467Z,101370.71
2024-01-21T14:00:45.804Z,101370.85
2024-01-21T14:03:13.729Z,101371.13
2024-01-21T14:05:41.615Z,101374.19
2024-01-21T14:08:08.548Z,101370.73
2024-01-21T14:10:35.810Z,101369.09
2024-01-21T14:13:03.520Z,101363.37
2024-01-21T14:15:30.360Z,101371.01
2024-01-21T14:17:57.756Z,101376.12
2024-01-21T14:20:24.890Z,101389.96
2024-01-21T14:22:51.978Z,101392.55
2024-01-21T14:25:28.192Z,101393.62
2024-01-21T14:27:55.881Z,101396.76
2024-01-21T14:30:30.627Z,101402.82
2024-01-21T14:32:59.045Z,101406.77
2024-01-21T14:35:29.998Z,101419.52
2024-01-21T14:37:59.006Z,101409.66
2024-01-21T14:40:29.828Z,101400.08
2024-01-21T14:42:58.629Z,101402.55
2024-01-21T14:45:25.855Z,101398.81
2024-01-21T14:47:53.934Z,101399.02
2024-01-21T14:50:20.796Z,101404.49
2024-01-21T14:52:49.249Z,101407.67
2024-01-21T14:55:16.960Z,101413.04
2024-01-21T14:57:45.948Z,101417.17
2024-01-21T15:00:14.087Z,101416.29
2024-01-21T15:02:41.160Z,101419.91
2024-01-21T15:05:09.413Z,101420.77
2024-01-21T15:07:37.018Z,101427.14
2024-01-21T15:10:05.845Z,101431.80
2024-01-21T15:12:33.328Z,101431.98
2024-01-21T15:15:28.953Z,101429.72
2024-01-21T15:17:55.918Z,101430.38
2024-01-21T15:20:22.753Z,101427.99
2024-01-21T15:22:49.417Z,101429.32
2024-01-21T15:25:16.606Z,101426.55
2024-01-21T15:27:43.235Z,101428.51
2024-01-21T15:30:10.925Z,101427.75
2024-01-21T15:32:39.208Z,101428.32
2024-01-21T15:35:06.463Z,101427.77
2024-01-21T15:37:33.563Z,101419.43
2024-01-21T15:40:00.497Z,101417.75
2024-01-21T15:42:27.628Z,101411.06
2024-01-21T15:44:54.694Z,101409.52
2024-01-21T15:47:21.489Z,101405.79
2024-01-21T15:49:48.765Z,101397.63
2024-01-21T15:52:16.139Z,101397.41
2024-01-21T15:54:42.870Z,101396.02
2024-01-21T15:57:10.254Z,101409.23
2024-01-21T15:59:36.803Z,101409.20
2024-01-21T16:02:04.539Z,101414.24
2024-01-21T16:04:31.573Z,101418.94
2024-01-21T16:06:58.354Z,101422.29
2024-01-21T16:09:25.016Z,101432.77
2024-01-21T16:11:52.454Z,101429.31
2024-01-21T16:14:19.204Z,101433.73
2024-01-21T16:16:47.920Z,101430.83
2024-01-21T16:19:15.825Z,101432.97
2024-01-21T16:21:43.077Z,101433.61
2024-01-21T16:24:10.343Z,101433.76
2024-01-21T16:26:36.978Z,101441.97
2024-01-21T16:29:03.925Z,101443.39
2024-01-21T16:31:32.112Z,101440.38
2024-01-21T16:33:59.183Z,101440.36
2024-01-21T16:36:27.034Z,101440.44
2024-01-21T16:38:53.707Z,101447.49
2024-01-21T16:41:20.466Z,101447.02
2024-01-21T16:43:50.466Z,101436.39
2024-01-21T16:46:17.432Z,101430.90
2024-01-21T16:48:44.143Z,101424.03
2024-01-21T16:51:11.808Z,101424.85
2024-01-21T16:53:39.272Z,101426.64
2024-01-21T16:56:06.552Z,101424.81
2024-01-21T16:58:33.584Z,101415.36
2024-01-21T17:01:02.289Z,101419.01
2024-01-21T17:03:30.828Z,101415.31
2024-01-21T17:05:58.588Z,101414.86
2024-01-21T17:08:25.390Z,101414.84
2024-01-21T17:11:11.006Z,101413.98
2024-01-21T17:13:37.841Z,101413.46
2024-01-21T17:16:05.479Z,101413.96
2024-01-21T17:18:59.790Z,101411.94
2024-01-21T17:21:26.416Z,101403.81
2024-01-21T17:23:53.627Z,101396.50
2024-01-21T17:26:20.274Z,101388.66
2024-01-21T17:28:48.230Z,101379.80
2024-01-21T17:31:14.881Z,101374.71
2024-01-21T17:33:45.587Z,101374.91
2024-01-21T17:36:13.320Z,101377.27
2024-01-21T17:38:39.988Z,101380.62
2024-01-21T17:41:07.272Z,101377.48
2024-01-21T17:43:34.178Z,101375.84
2024-01-21T17:46:00.818Z,101376.36
2024-01-21T17:48:27.888Z,101377.40
2024-01-21T17:50:54.880Z,101379.46
2024-01-21T17:53:21.778Z,101374.14
2024-01-21T17:55:49.844Z,101378.15
2024-01-21T17:58:17.161Z,101368.42
2024-01-21T18:00:45.298Z,101366.98
2024-01-21T18:03:12.296Z,101365.23
2024-01-21T18:05:39.030Z,101351.73
2024-01-21T18:08:06.466Z,101347.27
2024-01-21T18:10:33.349Z,101344.29
2024-01-21T18:13:00.153Z,101344.31
2024-01-21T18:15:26.793Z,101349.33
2024-01-21T18:17:53.903Z,101355.95
2024-01-21T18:20:20.570Z,101353.48
2024-01-21T18:22:47.323Z,101349.52
2024-01-21T18:25:14.746Z,101358.94
2024-01-21T18:27:41.443Z,101358.54
2024-01-21T18:30:10.182Z,101358.27
2024-01-21T18:32:36.974Z,101351.92
2024-01-21T18:35:05.608Z,101348.45
2024-01-21T18:37:33.281Z,101346.50
2024-01-21T18:39:59.857Z,101343.02
2024-01-21T18:42:27.414Z,101342.11
2024-01-21T18:44:54.315Z,101341.88
2024-01-21T18:47:20.955Z,101342.58
2024-01-21T18:49:47.609Z,101346.98
2024-01-21T18:52:14.903Z,101341.54
2024-01-21T18:54:41.979Z,101342.69
2024-01-21T18:57:12.612Z,101334.01
2024-01-21T18:59:42.815Z,101333.23
2024-01-21T19:02:11.056Z,101330.63
2024-01-21T19:04:44.529Z,101324.35
2024-01-21T19:07:15.381Z,101324.35
2024-01-21T19:09:42.157Z,101324.23
2024-01-21T19:12:09.404Z,101328.60
2024-01-21T19:14:36.897Z,101331.22
2024-01-21T19:17:04.006Z,101328.57
2024-01-21T19:19:31.391Z,101324.84
2024-01-21T19:21:59.471Z,101324.77
2024-01-21T19:24:26.288Z,101326.83
2024-01-21T19:26:53.011Z,101323.23
2024-01-21T19:29:19.989Z,101321.34
2024-01-21T19:31:46.878Z,101328.79
2024-01-21T19:34:13.701Z,101325.83
2024-01-21T19:36:40.682Z,101321.40
2024-01-21T19:39:07.421Z,101315.80
2024-01-21T19:41:34.561Z,101311.23
2024-01-21T19:44:01.237Z,101304.33
2024-01-21T19:46:27.790Z,101300.85
2024-01-21T19:48:54.864Z,101311.48
2024-01-21T19:51:26.481Z,101312.41
2024-01-21T19:53:53.801Z,101312.44
2024-01-21T19:56:21.791Z,101313.38
2024-01-21T19:58:49.757Z,101315.71
2024-01-21T20:01:16.335Z,101307.71
2024-01-21T20:03:44.405Z,101301.08
2024-01-21T20:06:14.199Z,101291.88
2024-01-21T20:08:41.556Z,101284.88
2024-01-21T20:11:08.860Z,101273.81
2024-01-21T20:13:35.481Z,101266.16
2024-01-21T20:16:02.218Z,101259.64
2024-01-21T20:18:29.746Z,101260.98
2024-01-21T20:20:56.658Z,101260.30
2024-01-21T20:23:23.419Z,101252.14
2024-01-21T20:25:50.124Z,101245.80
2024-01-21T20:28:18.166Z,101241.98
2024-01-21T20:30:44.951Z,101240.70
2024-01-21T20:33:12.046Z,101237.73
2024-01-21T20:35:40.733Z,101224.73
2024-01-21T20:38:07.941Z,101219.08
2024-01-21T20:40:34.915Z,101216.16
2024-01-21T20:43:01.522Z,101211.18
2024-01-21T20:45:28.726Z,101216.82
2024-01-21T20:47:56.749Z,101211.24
2024-01-21T20:50:23.563Z,101202.31
2024-01-21T20:52:56.645Z,101179.95
2024-01-21T20:55:26.936Z,101167.33
2024-01-21T20:57:54.279Z,101173.45
2024-01-21T21:00:22.294Z,101174.79
2024-01-21T21:02:49.084Z,101174.67
2024-01-21T21:05:16.022Z,101174.84
2024-01-21T21:07:42.909Z,101166.23
2024-01-21T21:10:10.465Z,101166.36
2024-01-21T21:12:37.094Z,101161.15
2024-01-21T21:15:03.827Z,101153.83
2024-01-21T21:17:31.172Z,101142.83
2024-01-21T21:19:57.870Z,101137.98
2024-01-21T21:22:24.479Z,101127.02
2024-01-21T21:24:51.256Z,101123.42
2024-01-21T21:27:18.314Z,101116.99
2024-01-21T21:29:45.146Z,101120.54
2024-01-21T21:32:11.848Z,101124.55
2024-01-21T21:34:39.265Z,101124.02
2024-01-21T21:37:07.106Z,101125.55
2024-01-21T21:39:34.149Z,101115.07
2024-01-21T21:42:01.200Z,101101.66
2024-01-21T21:44:28.405Z,101093.36
2024-01-21T21:46:56.514Z,101079.95
2024-01-21T21:49:24.806Z,101080.05
2024-01-21T21:51:51.814Z,101070.60
2024-01-21T21:54:19.116Z,101058.99
2024-01-21T21:56:47.002Z,101057.85
2024-01-21T21:59:13.918Z,101049.74
2024-01-21T22:01:40.532Z,101045.82
2024-01-21T22:04:07.686Z,101050.04
2024-01-21T22:06:34.884Z,101053.95
2024-01-21T22:09:02.072Z,101065.09
2024-01-21T22:11:29.209Z,101062.64
2024-01-21T22:13:56.089Z,101053.16
2024-01-21T22:16:22.656Z,101051.95
2024-01-21T22:18:49.877Z,101039.40
2024-01-21T22:21:20.523Z,101034.35
2024-01-21T22:23:48.746Z,101023.23
2024-01-21T22:26:19.271Z,101009.22
2024-01-21T22:28:46.053Z,101007.44
2024-01-21T22:31:13.718Z,101010.69
2024-01-21T22:33:40.694Z,101010.69
2024-01-21T22:36:07.716Z,101001.04
2024-01-21T22:38:34.639Z,100998.88
2024-01-21T22:41:01.332Z,101000.15
2024-01-21T22:43:28.071Z,101003.55
2024-01-21T22:45:54.853Z,101000.64
2024-01-21T22:48:22.091Z,101001.95
2024-01-21T22:50:49.035Z,101001.55
2024-01-21T22:53:16.284Z,100995.15
2024-01-21T22:55:42.815Z,100991.11
2024-01-21T22:58:09.551Z,100991.30
2024-01-21T23:00:36.231Z,100988.26
2024-01-21T23:03:03.281Z,100978.69
2024-01-21T23:05:30.055Z,100981.45
2024-01-21T23:07:56.778Z,100972.35
2024-01-21T23:10:23.326Z,100960.48
2024-01-21T23:12:50.031Z,100953.21
2024-01-21T23:15:17.161Z,100954.56
2024-01-21T23:17:44.133Z,100950.33
2024-01-21T23:20:11.502Z,100934.17
2024-01-21T23:22:38.299Z,100926.52
2024-01-21T23:25:05.725Z,100930.42
2024-01-21T23:27:32.302Z,100921.92
2024-01-21T23:29:59.073Z,100921.45
2024-01-21T23:32:26.243Z,100915.58
2024-01-21T23:34:53.756Z,100905.41
2024-01-21T23:37:20.927Z,100900.17
2024-01-21T23:39:47.502Z,100894.14
2024-01-21T23:42:14.582Z,100897.23
2024-01-21T23:44:41.293Z,100890.44
2024-01-21T23:47:07.808Z,100882.33
2024-01-21T23:49:35.173Z,100879.85
2024-01-21T23:52:01.913Z,100873.27
2024-01-21T23:54:28.647Z,100864.68
2024-01-21T23:56:55.281Z,100860.22
2024-01-21T23:59:22.244Z,100856.11
